Roma, Italy

1:50 AM CEST on May 23, 2015 (GMT +0200)
Largo Preneste | | Change Station
CLOSE
Current Station
Personal Weather Station
Location: Roma, LAZIO
Elevation: 125 ft
Nearby Weather Stations
Active Advisory: Rain

Elev 125 ft 41.89 °N, 12.54 °E | Updated 28 seconds ago

Light Rain
Light Rain
56.8 °F
Feels Like 56.8 °F
N
0.0
Wind Variable Wind from WSW
Gusts 5.0 mph

Today
High -- | Low -- °F
--% Chance of Precip.
Yesterday
High -- | Low -- °F
Precip. -- in
5:43 AM 8:30 PM
Waxing Crescent, 25% visible
Pressure 29.83 in
Visibility 6.2 miles
Clouds Scattered Clouds 1600 ft
Few 1800 ft
Scattered Clouds 2300 ft
Dew Point 51.1 °F
Humidity 81%
Rainfall 0.02 in
Snow Depth Not available.
UV 0 out of 12
Pollen Not available.
Air Quality Not available.
Flu Activity Not available.
METAR LIRA 222315Z 27001KT 9999 -RA SCT016 FEW018CB SCT023 13/11 Q1010

More Conditions Fewer Conditions

Pressure 29.83 in
Visibility 6.2 miles
Clouds Scattered Clouds 1600 ft
Few 1800 ft
Scattered Clouds 2300 ft
Dew Point 51.1 °F
Humidity 81%
Rainfall 0.02 in
Snow Depth Not available.
UV 0 out of 12
Pollen Not available.
Air Quality Not available.
Flu Activity Not available.
METAR LIRA 222315Z 27001KT 9999 -RA SCT016 FEW018CB SCT023 13/11 Q1010

More Conditions Fewer Conditions

10-Day Weather Forecast

Almanac

Astronomy

May. 23, 2015 Rise Set
Actual Time
Civil Twilight
Nautical Twilight
Astronomical Twilight
Moon
Length of Visible Light
Length of Day
Tomorrow will be .
, % of the Moon is Illuminated

Today's Extremes

Country Highs Country Lows

Community

WunderPhotos

Upload Photos

1,823,335 photos uploaded!

WunderBlogs® & News

Nearby

Air Quality

  Air Quality AQ Index Pollutant
Not available.

Snow Depth

Station Depth Elevation

Earthquake Activity

City Distance Mag. Time & Date
Minimum magnitude displayed is 2.5.

Coastal Water Temperatures

Place Temperature

Stations

Nearby Weather Stations

Station Location Temp. Windchill Dew Point Humidity Wind Precip. Elev Updated Type